Kuurne, Belgium
Current Conditions -  °F | °C
As of 2:00 PM on Tuesday 21 Oct 2014 (Local Time) from LFQQ Reporting Station
Broken Clouds Broken Clouds  
Wind Chill: 57°   Ceiling: 6200
Heat Index: 57°   Visibility: 6mi
Dew Point: 48°   Wind: 24mph
Humidity: 72%   Direction: 280°W
Pressure: 29.62"   Gusts: NA
Location:  50.85°N, 3.28°E
Report Text: LFQQ 211200Z 28021KT 9999 FEW018 BKN062 14/09 Q1003 TEMPO29030G50KT
Loading
Personal Weather Stations






























Interactive Weather Map
Tropical Storm Tracking
New forecast layout! Learn more

10-Day Weather Forecast

Advertisements
Track Severe Weather on mobile